Weather - Helsinki Query any day in the database

Current weather  

Weather data for a selected day (2006-01-01 -2020-12-04)
Enter date:     <-     scroll days         ->
day curves
Low temperature°C -7.023:50
High temperature°C -3.005:20
Low wind chill°C -14.522:20
Average temperature°C -4.8 
High wind speed (10 min) m/s 7.609:20
Low pressurehPa 1036.004:50
High pressurehPa 1042.023:50
Low R.H% 7313:50
High R.H% 8520:20
Day weather data as a table
Date Time Temp
°C
Chill
°C
Pressure
hPA
Wind
m/s
Hum
%
Precip
mm
2016-01-01 23:50:00 -7.0  -13.3  1042.0 4.5 79 -
2016-01-01 23:20:00 -7.0  -13.3  1042.0 4.5 79 -
2016-01-01 22:50:00 -7.0  -14.2  1042.0 5.8 79 -
2016-01-01 22:20:00 -7.0  -14.5  1042.0 6.3 79 -
2016-01-01 21:50:00 -6.0  -13.0  1041.0 5.8 73 -
2016-01-01 21:20:00 -6.0  -13.3  1041.0 6.3 79 -
2016-01-01 20:50:00 -6.0  -13.5  1041.0 6.7 79 -
2016-01-01 20:20:00 -6.0  -13.0  1040.0 5.8 85 -
2016-01-01 19:50:00 -6.0  -13.0  1040.0 5.8 79 -
2016-01-01 19:20:00 -5.0  -12.0  1040.0 6.3 73 -
2016-01-01 18:50:00 -5.0  -11.5  1040.0 5.4 73 -
2016-01-01 18:20:00 -5.0  -10.8  1039.0 4.5 73 -
2016-01-01 17:50:00 -5.0  -11.5  1039.0 5.4 73 -
2016-01-01 17:20:00 -5.0  -11.5  1039.0 5.4 73 -
2016-01-01 16:50:00 -5.0  -10.4  1039.0 4.0 73 -
2016-01-01 16:20:00 -6.0  -11.3  1039.0 3.6 79 -
2016-01-01 15:50:00 -6.0  -11.7  1039.0 4.0 85 -
2016-01-01 15:20:00 -5.0  -10.4  1039.0 4.0 73 -
2016-01-01 14:50:00 -5.0  -10.4  1039.0 4.0 73 -
2016-01-01 14:20:00 -5.0  -11.7  1039.0 5.8 73 -
2016-01-01 13:50:00 -5.0  -12.0  1038.0 6.3 73 -
2016-01-01 13:20:00 -5.0  -12.2  1038.0 6.7 85 -
2016-01-01 12:50:00 -4.0  -10.4  1038.0 5.8 79 -
2016-01-01 12:20:00 -5.0  -11.5  1038.0 5.4 79 -
2016-01-01 11:50:00 -5.0  -12.0  1038.0 6.3 85 -
2016-01-01 11:20:00 -5.0  -10.8  1038.0 4.5 85 -
2016-01-01 10:50:00 -5.0  -11.5  1038.0 5.4 85 -
2016-01-01 10:20:00 -4.0  -10.2  1038.0 5.4 79 -
2016-01-01 09:50:00 -4.0  -11.2  1038.0 7.2 79 -
2016-01-01 09:20:00 -4.0  -11.4  1038.0 7.6 79 -
2016-01-01 08:50:00 -4.0  -10.9  1037.0 6.7 85 -
2016-01-01 08:20:00 -4.0  -10.4  1037.0 5.8 79 -
2016-01-01 07:50:00 -4.0  -10.9  1037.0 6.7 79 -
2016-01-01 07:20:00 -4.0  -10.7  1037.0 6.3 85 -
2016-01-01 06:50:00 -4.0  -10.4  1037.0 5.8 79 -
2016-01-01 06:20:00 -4.0  -10.9  1037.0 6.7 79 -
2016-01-01 05:50:00 -4.0  -11.2  1037.0 7.2 85 -
2016-01-01 05:20:00 -3.0  -8.9  1037.0 5.4 79 -
2016-01-01 04:50:00 -4.0  -9.2  1036.0 4.0 85 -
2016-01-01 04:20:00 -4.0  -9.2  1037.0 4.0 85 -
2016-01-01 03:50:00 -4.0  -10.2  1036.0 5.4 85 -
2016-01-01 03:20:00 -4.0  -10.2  1037.0 5.4 79 -
2016-01-01 02:50:00 -4.0  -10.9  1037.0 6.7 79 -
2016-01-01 02:20:00 -4.0  -10.7  1037.0 6.3 79 -
2016-01-01 01:50:00 -4.0  -10.2  1037.0 5.4 79 -
2016-01-01 01:20:00 -4.0  -10.7  1037.0 6.3 79 -
2016-01-01 00:50:00 -4.0  -10.9  1037.0 6.7 79 -
2016-01-01 00:20:00 -4.0  -10.4  1037.0 5.8 79 -
Unit conversions: